Terminal Aerodrome Forecast
Issued by NWS

Home | Current Version | Previous Version | Text Only | Print | Product List | Glossary On
Versions: 1 2 3 4 5 6 7 8 9 10 11 12 13 14 15 16 17 18 19 20 21 22 23 24 25 26
000
FTUS42 KRAH 190539
TAFRWI
TAF
KRWI 190539Z 1906/2006 18010G17KT P6SM BKN035
     FM190800 17010G16KT P6SM BKN015
     FM191400 18018G30KT P6SM VCSH OVC025
      TEMPO 1916/1920 VRB20G35KT 2SM TSRA FEW015 BKN025CB
     FM200000 17018G25KT 6SM -RA BR OVC015
     FM200500 18015G22KT 6SM -RA OVC025=

USA.gov is the U.S. government's official web portal to all federal, state and local government web resources and services.